createdAt,value
2023-05-05T00:01:11.822Z,4.43
2023-05-05T00:03:38.755Z,5.05
2023-05-05T00:06:05.708Z,4.32
2023-05-05T00:08:32.425Z,4.78
2023-05-05T00:10:59.020Z,4.53
2023-05-05T00:13:25.706Z,4.28
2023-05-05T00:15:53.711Z,4.40
2023-05-05T00:18:21.069Z,4.55
2023-05-05T00:20:48.495Z,4.47
2023-05-05T00:23:16.429Z,4.88
2023-05-05T00:25:43.312Z,5.00
2023-05-05T00:28:09.894Z,4.93
2023-05-05T00:30:37.510Z,4.75
2023-05-05T00:33:04.336Z,4.90
2023-05-05T00:35:30.880Z,5.40
2023-05-05T00:37:57.497Z,4.53
2023-05-05T00:40:25.143Z,4.80
2023-05-05T00:42:52.130Z,4.47
2023-05-05T00:45:20.068Z,4.93
2023-05-05T00:47:50.284Z,4.70
2023-05-05T00:50:30.882Z,4.68
2023-05-05T00:53:06.443Z,4.75
2023-05-05T00:55:34.888Z,5.20
2023-05-05T00:58:05.625Z,4.72
2023-05-05T01:00:32.366Z,4.97
2023-05-05T01:02:59.553Z,5.13
2023-05-05T01:05:32.987Z,4.43
2023-05-05T01:08:11.425Z,4.57
2023-05-05T01:10:42.434Z,4.32
2023-05-05T01:13:42.941Z,4.75
2023-05-05T01:16:24.124Z,4.63
2023-05-05T01:21:43.275Z,4.70
2023-05-05T01:24:37.349Z,5.10
2023-05-05T01:27:38.328Z,4.88
2023-05-05T01:30:43.239Z,5.78
2023-05-05T01:33:14.395Z,5.22
2023-05-05T01:35:47.257Z,6.82
2023-05-05T01:38:26.058Z,5.97
2023-05-05T01:40:59.640Z,6.20
2023-05-05T01:43:29.610Z,5.68
2023-05-05T01:45:59.380Z,5.68
2023-05-05T01:48:26.373Z,6.03
2023-05-05T01:50:53.980Z,5.78
2023-05-05T01:53:23.360Z,5.72
2023-05-05T01:55:52.236Z,5.55
2023-05-05T02:00:48.963Z,5.57
2023-05-05T02:03:17.353Z,4.88
2023-05-05T02:05:47.446Z,5.50
2023-05-05T02:08:15.099Z,5.65
2023-05-05T02:10:43.001Z,5.20
2023-05-05T02:13:15.608Z,5.18
2023-05-05T02:15:44.084Z,5.47
2023-05-05T02:18:11.385Z,5.25
2023-05-05T02:20:39.777Z,5.57
2023-05-05T02:23:07.984Z,5.15
2023-05-05T02:25:43.564Z,5.05
2023-05-05T02:28:15.338Z,4.93
2023-05-05T02:30:42.596Z,4.35
2023-05-05T02:33:11.648Z,4.50
2023-05-05T02:35:40.883Z,4.00
2023-05-05T02:38:17.227Z,4.15
2023-05-05T02:40:46.140Z,3.88
2023-05-05T02:45:42.243Z,3.70
2023-05-05T02:48:10.615Z,3.88
2023-05-05T02:50:37.132Z,3.63
2023-05-05T02:53:03.916Z,3.80
2023-05-05T02:55:43.844Z,3.85
2023-05-05T02:58:48.611Z,4.28
2023-05-05T03:01:29.609Z,3.92
2023-05-05T03:04:05.791Z,4.10
2023-05-05T03:06:41.159Z,3.95
2023-05-05T03:09:19.822Z,3.70
2023-05-05T03:12:10.027Z,3.72
2023-05-05T03:14:41.870Z,3.75
2023-05-05T03:17:12.569Z,3.85
2023-05-05T03:19:42.838Z,3.58
2023-05-05T03:22:09.945Z,3.45
2023-05-05T03:24:36.392Z,4.05
2023-05-05T03:27:03.176Z,3.45
2023-05-05T03:29:30.239Z,3.42
2023-05-05T03:31:56.819Z,3.42
2023-05-05T03:34:23.505Z,3.35
2023-05-05T03:36:50.036Z,3.30
2023-05-05T03:39:17.089Z,3.58
2023-05-05T03:41:43.567Z,3.28
2023-05-05T03:44:10.496Z,2.97
2023-05-05T03:46:36.996Z,3.25
2023-05-05T03:49:03.500Z,3.42
2023-05-05T03:51:30.012Z,3.47
2023-05-05T03:53:56.506Z,3.58
2023-05-05T03:56:22.984Z,3.20
2023-05-05T03:58:49.464Z,3.42
2023-05-05T04:01:18.005Z,3.50
2023-05-05T04:03:44.504Z,3.35
2023-05-05T04:06:11.457Z,3.75
2023-05-05T04:08:37.931Z,3.55
2023-05-05T04:11:04.513Z,3.78
2023-05-05T04:13:31.081Z,4.03
2023-05-05T04:15:57.654Z,3.70
2023-05-05T04:18:24.225Z,3.92
2023-05-05T04:20:50.779Z,4.70
2023-05-05T04:23:17.307Z,3.97
2023-05-05T04:25:43.856Z,3.67
2023-05-05T04:28:10.361Z,3.70
2023-05-05T04:30:36.871Z,4.05
2023-05-05T04:33:03.583Z,3.90
2023-05-05T04:35:30.093Z,3.90
2023-05-05T04:37:56.611Z,3.83
2023-05-05T04:40:23.167Z,3.97
2023-05-05T04:42:50.806Z,3.60
2023-05-05T04:45:17.474Z,4.57
2023-05-05T04:47:44.090Z,4.05
2023-05-05T04:50:14.304Z,3.75
2023-05-05T04:52:40.751Z,3.75
2023-05-05T04:55:09.204Z,4.03
2023-05-05T04:57:35.746Z,3.90
2023-05-05T05:00:04.835Z,4.43
2023-05-05T05:02:31.607Z,4.20
2023-05-05T05:04:58.283Z,4.47
2023-05-05T05:07:24.800Z,3.97
2023-05-05T05:09:51.532Z,3.85
2023-05-05T05:12:18.025Z,3.65
2023-05-05T05:14:44.563Z,3.72
2023-05-05T05:17:11.057Z,4.15
2023-05-05T05:19:37.652Z,4.15
2023-05-05T05:22:04.387Z,4.10
2023-05-05T05:24:30.953Z,4.18
2023-05-05T05:26:57.480Z,3.90
2023-05-05T05:29:24.099Z,4.78
2023-05-05T05:31:50.609Z,5.10
2023-05-05T05:34:17.139Z,5.07
2023-05-05T05:36:43.772Z,4.40
2023-05-05T05:39:10.294Z,4.65
2023-05-05T05:41:36.743Z,4.90
2023-05-05T05:44:03.502Z,5.00
2023-05-05T05:46:30.057Z,5.15
2023-05-05T05:48:57.314Z,5.97
2023-05-05T05:51:23.837Z,5.38
2023-05-05T05:53:51.809Z,5.78
2023-05-05T05:56:18.397Z,5.93
2023-05-05T05:58:45.302Z,5.82
2023-05-05T06:01:12.075Z,6.03
2023-05-05T06:03:38.676Z,7.20
2023-05-05T06:06:05.271Z,6.50
2023-05-05T06:08:31.913Z,5.55
2023-05-05T06:11:00.601Z,6.10
2023-05-05T06:13:27.263Z,5.50
2023-05-05T06:15:53.770Z,5.70
2023-05-05T06:18:20.381Z,5.93
2023-05-05T06:20:49.844Z,5.95
2023-05-05T06:23:16.693Z,5.00
2023-05-05T06:25:43.273Z,4.90
2023-05-05T06:28:09.760Z,5.05
2023-05-05T06:30:36.397Z,4.60
2023-05-05T06:33:03.011Z,4.03
2023-05-05T06:35:30.354Z,3.92
2023-05-05T06:37:56.851Z,4.40
2023-05-05T06:40:25.618Z,4.20
2023-05-05T06:42:52.298Z,3.95
2023-05-05T06:45:18.835Z,4.22
2023-05-05T06:47:45.352Z,4.30
2023-05-05T06:50:11.973Z,4.38
2023-05-05T06:52:38.439Z,3.83
2023-05-05T06:55:05.402Z,4.22
2023-05-05T06:57:31.953Z,4.30
2023-05-05T06:59:58.548Z,3.60
2023-05-05T07:02:26.652Z,3.97
2023-05-05T07:04:55.364Z,4.22
2023-05-05T07:07:22.075Z,3.58
2023-05-05T07:09:48.569Z,3.70
2023-05-05T07:12:15.126Z,3.60
2023-05-05T07:14:41.654Z,3.60
2023-05-05T07:17:08.165Z,3.72
2023-05-05T07:19:34.690Z,4.00
2023-05-05T07:22:01.167Z,4.07
2023-05-05T07:24:27.688Z,3.17
2023-05-05T07:26:54.257Z,3.58
2023-05-05T07:29:20.879Z,2.80
2023-05-05T07:31:47.399Z,2.78
2023-05-05T07:34:14.035Z,3.00
2023-05-05T07:36:40.800Z,2.92
2023-05-05T07:39:07.468Z,2.42
2023-05-05T07:41:33.974Z,2.83
2023-05-05T07:44:01.217Z,2.38
2023-05-05T07:46:27.867Z,2.58
2023-05-05T07:48:54.520Z,2.47
2023-05-05T07:51:21.546Z,2.75
2023-05-05T07:53:48.112Z,2.35
2023-05-05T07:56:14.637Z,2.83
2023-05-05T07:58:42.229Z,3.08
2023-05-05T08:01:11.162Z,2.33
2023-05-05T08:03:37.885Z,2.42
2023-05-05T08:06:10.595Z,2.80
2023-05-05T08:08:37.755Z,2.80
2023-05-05T08:11:06.370Z,2.60
2023-05-05T08:13:33.078Z,2.28
2023-05-05T08:15:59.641Z,2.35
2023-05-05T08:18:26.566Z,2.65
2023-05-05T08:20:54.577Z,2.13
2023-05-05T08:23:21.659Z,2.08
2023-05-05T08:25:48.224Z,1.70
2023-05-05T08:28:14.753Z,1.67
2023-05-05T08:30:41.757Z,2.15
2023-05-05T08:33:08.360Z,1.42
2023-05-05T08:35:34.868Z,1.67
2023-05-05T08:38:01.332Z,1.23
2023-05-05T08:40:36.450Z,1.35
2023-05-05T08:43:03.762Z,1.40
2023-05-05T08:45:30.363Z,1.40
2023-05-05T08:47:58.014Z,1.20
2023-05-05T08:50:27.993Z,1.20
2023-05-05T08:53:03.496Z,1.08
2023-05-05T08:55:34.926Z,1.25
2023-05-05T08:58:05.757Z,1.48
2023-05-05T09:00:47.166Z,1.30
2023-05-05T09:03:14.686Z,0.95
2023-05-05T09:05:42.985Z,1.05
2023-05-05T09:08:13.017Z,1.13
2023-05-05T09:10:44.664Z,1.33
2023-05-05T09:15:51.792Z,1.75
2023-05-05T09:18:18.291Z,1.20
2023-05-05T09:20:45.050Z,1.25
2023-05-05T09:23:17.329Z,1.00
2023-05-05T09:25:46.831Z,1.60
2023-05-05T09:28:17.820Z,1.27
2023-05-05T09:30:47.480Z,1.25
2023-05-05T09:33:14.381Z,1.15
2023-05-05T09:35:51.386Z,1.67
2023-05-05T09:38:19.238Z,1.13
2023-05-05T09:40:47.747Z,1.38
2023-05-05T09:43:15.230Z,1.33
2023-05-05T09:45:41.921Z,1.60
2023-05-05T09:48:22.858Z,1.73
2023-05-05T09:50:49.597Z,1.70
2023-05-05T09:53:16.195Z,1.50
2023-05-05T09:56:00.907Z,1.63
2023-05-05T09:58:29.162Z,1.52
2023-05-05T10:00:57.471Z,2.35
2023-05-05T10:03:25.206Z,2.28
2023-05-05T10:05:56.943Z,2.70
2023-05-05T10:08:26.405Z,2.53
2023-05-05T10:11:01.071Z,3.40
2023-05-05T10:15:56.456Z,2.72
2023-05-05T10:21:02.371Z,0.75
2023-05-05T10:23:52.893Z,1.48
2023-05-05T10:26:22.353Z,1.02
2023-05-05T10:28:55.692Z,2.38
2023-05-05T10:31:46.342Z,0.88
2023-05-05T10:34:58.599Z,0.70
2023-05-05T10:37:26.126Z,0.50
2023-05-05T10:39:55.601Z,0.50
2023-05-05T10:42:23.571Z,0.70
2023-05-05T10:44:51.657Z,0.52
2023-05-05T10:47:20.275Z,0.95
2023-05-05T10:50:06.559Z,0.63
2023-05-05T10:52:55.665Z,0.77
2023-05-05T10:55:36.432Z,0.63
2023-05-05T10:58:02.992Z,0.50
2023-05-05T11:00:38.713Z,0.85
2023-05-05T11:03:17.495Z,0.70
2023-05-05T11:06:08.298Z,0.70
2023-05-05T11:08:39.207Z,0.63
2023-05-05T11:11:06.359Z,0.70
2023-05-05T11:13:32.912Z,0.85
2023-05-05T11:16:00.825Z,0.98
2023-05-05T11:18:31.461Z,0.80
2023-05-05T11:20:57.882Z,0.70
2023-05-05T11:23:24.942Z,0.70
2023-05-05T11:25:58.100Z,0.80
2023-05-05T11:28:31.085Z,0.77
2023-05-05T11:30:58.539Z,0.90
2023-05-05T11:33:29.198Z,0.95
2023-05-05T11:36:06.480Z,1.27
2023-05-05T11:38:39.511Z,1.25
2023-05-05T11:41:12.181Z,1.58
2023-05-05T11:43:39.659Z,1.58
2023-05-05T11:46:12.795Z,1.80
2023-05-05T11:48:50.175Z,2.00
2023-05-05T11:51:17.550Z,2.03
2023-05-05T11:53:46.036Z,2.30
2023-05-05T11:56:18.882Z,2.15
2023-05-05T11:58:48.880Z,2.03
2023-05-05T12:01:15.919Z,2.20
2023-05-05T12:03:43.424Z,1.85
2023-05-05T12:06:10.161Z,1.70
2023-05-05T12:08:40.549Z,2.20
2023-05-05T12:11:09.925Z,1.80
2023-05-05T12:13:36.547Z,1.65
2023-05-05T12:16:13.469Z,2.03
2023-05-05T12:18:40.926Z,2.03
2023-05-05T12:21:15.881Z,1.77
2023-05-05T12:23:42.476Z,1.70
2023-05-05T12:26:24.287Z,1.50
2023-05-05T12:28:50.769Z,1.77
2023-05-05T12:31:17.252Z,1.75
2023-05-05T12:33:44.276Z,1.80
2023-05-05T12:36:12.154Z,2.03
2023-05-05T12:38:39.022Z,2.22
2023-05-05T12:41:05.636Z,1.90
2023-05-05T12:43:33.333Z,1.98
2023-05-05T12:46:11.792Z,1.83
2023-05-05T12:48:40.665Z,2.28
2023-05-05T12:51:15.065Z,2.15
2023-05-05T12:53:41.896Z,2.38
2023-05-05T12:56:30.422Z,1.98
2023-05-05T12:58:57.419Z,2.28
2023-05-05T13:01:23.957Z,2.40
2023-05-05T13:04:10.916Z,2.35
2023-05-05T13:06:41.701Z,2.38
2023-05-05T13:09:10.064Z,2.13
2023-05-05T13:11:37.759Z,1.98
2023-05-05T13:14:04.940Z,2.80
2023-05-05T13:16:31.509Z,2.28
2023-05-05T13:18:58.093Z,2.55
2023-05-05T13:21:24.755Z,2.40
2023-05-05T13:23:51.201Z,2.30
2023-05-05T13:26:17.637Z,2.17
2023-05-05T13:28:44.321Z,2.10
2023-05-05T13:31:10.863Z,2.22
2023-05-05T13:33:37.557Z,2.05
2023-05-05T13:36:04.384Z,2.40
2023-05-05T13:38:33.017Z,2.10
2023-05-05T13:41:00.178Z,2.72
2023-05-05T13:43:26.679Z,2.35
2023-05-05T13:45:53.524Z,2.40
2023-05-05T13:48:20.807Z,2.25
2023-05-05T13:50:47.356Z,2.40
2023-05-05T13:53:14.666Z,2.03
2023-05-05T13:55:44.602Z,2.17
2023-05-05T13:58:11.102Z,1.52
2023-05-05T14:00:37.837Z,1.60
2023-05-05T14:03:04.622Z,1.55
2023-05-05T14:05:31.341Z,1.75
2023-05-05T14:07:57.832Z,1.95
2023-05-05T14:10:26.139Z,1.85
2023-05-05T14:12:52.907Z,1.70
2023-05-05T14:15:19.574Z,1.60
2023-05-05T14:17:46.178Z,1.02
2023-05-05T14:20:12.823Z,1.10
2023-05-05T14:22:39.421Z,1.02
2023-05-05T14:25:06.574Z,1.05
2023-05-05T14:27:33.261Z,0.98
2023-05-05T14:29:59.793Z,0.75
2023-05-05T14:32:26.338Z,1.00
2023-05-05T14:34:52.836Z,0.75
2023-05-05T14:37:19.481Z,0.90
2023-05-05T14:39:45.920Z,1.02
2023-05-05T14:42:12.594Z,1.10
2023-05-05T14:44:39.244Z,1.10
2023-05-05T14:47:05.896Z,0.90
2023-05-05T14:49:32.515Z,0.88
2023-05-05T14:51:59.028Z,1.02
2023-05-05T14:54:28.782Z,1.17
2023-05-05T14:56:56.181Z,0.90
2023-05-05T14:59:22.745Z,1.15
2023-05-05T15:01:49.652Z,1.10
2023-05-05T15:04:16.244Z,1.25
2023-05-05T15:06:42.772Z,1.23
2023-05-05T15:09:09.233Z,1.20
2023-05-05T15:11:35.738Z,1.50
2023-05-05T15:14:02.277Z,1.48
2023-05-05T15:16:28.884Z,1.17
2023-05-05T15:18:55.514Z,1.08
2023-05-05T15:21:22.070Z,1.27
2023-05-05T15:23:48.541Z,1.52
2023-05-05T15:26:16.023Z,1.20
2023-05-05T15:28:42.781Z,1.00
2023-05-05T15:31:09.348Z,1.02
2023-05-05T15:33:36.019Z,1.13
2023-05-05T15:36:02.530Z,1.00
2023-05-05T15:38:29.685Z,1.40
2023-05-05T15:40:56.214Z,1.05
2023-05-05T15:43:22.849Z,1.10
2023-05-05T15:45:49.348Z,1.10
2023-05-05T15:48:15.896Z,1.52
2023-05-05T15:50:42.449Z,2.03
2023-05-05T15:53:08.929Z,1.25
2023-05-05T15:55:35.833Z,1.20
2023-05-05T15:58:02.362Z,1.40
2023-05-05T16:00:28.966Z,2.20
2023-05-05T16:02:56.091Z,1.52
2023-05-05T16:05:23.097Z,1.00
2023-05-05T16:07:49.894Z,1.00
2023-05-05T16:10:17.711Z,1.23
2023-05-05T16:12:44.240Z,1.20
2023-05-05T16:15:11.387Z,0.95
2023-05-05T16:17:38.124Z,1.25
2023-05-05T16:20:05.148Z,1.17
2023-05-05T16:22:31.594Z,1.10
2023-05-05T16:24:58.062Z,0.90
2023-05-05T16:27:24.707Z,0.95
2023-05-05T16:29:51.437Z,0.82
2023-05-05T16:32:17.877Z,0.80
2023-05-05T16:34:44.431Z,0.80
2023-05-05T16:37:11.080Z,1.13
2023-05-05T16:39:40.278Z,1.02
2023-05-05T16:42:07.044Z,0.90
2023-05-05T16:44:33.634Z,0.88
2023-05-05T16:47:00.119Z,1.02
2023-05-05T16:49:26.600Z,0.80
2023-05-05T16:51:53.514Z,1.10
2023-05-05T16:54:20.034Z,1.23
2023-05-05T16:56:46.530Z,0.80
2023-05-05T16:59:15.191Z,0.50
2023-05-05T17:04:11.070Z,0.70
2023-05-05T17:06:37.698Z,0.52
2023-05-05T17:09:06.168Z,0.82
2023-05-05T17:11:32.737Z,0.70
2023-05-05T17:13:59.216Z,0.50
2023-05-05T17:16:26.098Z,0.80
2023-05-05T17:18:54.033Z,0.70
2023-05-05T17:21:20.546Z,0.50
2023-05-05T17:23:47.017Z,0.75
2023-05-05T17:26:13.749Z,0.73
2023-05-05T17:28:40.417Z,0.80
2023-05-05T17:31:07.005Z,0.77
2023-05-05T17:33:33.551Z,0.70
2023-05-05T17:36:00.222Z,0.70
2023-05-05T17:38:26.703Z,0.50
2023-05-05T17:40:53.165Z,0.70
2023-05-05T17:43:19.696Z,0.70
2023-05-05T17:45:46.751Z,0.60
2023-05-05T17:48:13.358Z,0.85
2023-05-05T17:50:41.378Z,0.77
2023-05-05T17:53:10.732Z,0.60
2023-05-05T17:55:37.354Z,0.73
2023-05-05T17:58:03.832Z,0.70
2023-05-05T18:00:30.542Z,0.57
2023-05-05T18:02:57.086Z,1.00
2023-05-05T18:05:23.618Z,0.70
2023-05-05T18:07:50.137Z,0.57
2023-05-05T18:10:16.813Z,0.70
2023-05-05T18:12:43.489Z,0.70
2023-05-05T18:15:10.737Z,0.70
2023-05-05T18:17:37.501Z,0.60
2023-05-05T18:20:06.758Z,0.90
2023-05-05T18:22:34.300Z,0.80
2023-05-05T18:25:01.122Z,0.70
2023-05-05T18:27:28.436Z,0.73
2023-05-05T18:29:55.380Z,1.02
2023-05-05T18:32:21.904Z,0.98
2023-05-05T18:34:48.420Z,1.77
2023-05-05T18:37:15.182Z,3.15
2023-05-05T18:39:43.903Z,3.00
2023-05-05T18:42:12.705Z,2.10
2023-05-05T18:44:39.232Z,2.38
2023-05-05T18:47:05.788Z,2.05
2023-05-05T18:49:32.272Z,2.30
2023-05-05T18:51:59.126Z,1.75
2023-05-05T18:54:25.772Z,1.30
2023-05-05T18:56:52.593Z,1.33
2023-05-05T18:59:19.077Z,1.52
2023-05-05T19:01:45.612Z,1.35
2023-05-05T19:04:26.681Z,1.30
2023-05-05T19:06:56.396Z,1.10
2023-05-05T19:09:22.860Z,1.42
2023-05-05T19:11:49.487Z,1.15
2023-05-05T19:14:16.772Z,1.38
2023-05-05T19:16:43.394Z,1.52
2023-05-05T19:19:11.110Z,1.95
2023-05-05T19:21:37.838Z,3.75
2023-05-05T19:24:04.477Z,6.72
2023-05-05T19:26:31.789Z,6.15
2023-05-05T19:28:58.268Z,5.00
2023-05-05T19:31:27.739Z,3.72
2023-05-05T19:34:02.771Z,4.15
2023-05-05T19:36:32.727Z,3.83
2023-05-05T19:39:04.123Z,4.00
2023-05-05T19:41:31.321Z,3.22
2023-05-05T19:43:57.912Z,3.78
2023-05-05T19:46:27.355Z,3.50
2023-05-05T19:48:54.028Z,3.20
2023-05-05T19:51:20.549Z,3.25
2023-05-05T19:53:47.219Z,2.47
2023-05-05T19:56:14.112Z,2.35
2023-05-05T19:59:00.788Z,2.10
2023-05-05T20:01:29.071Z,2.28
2023-05-05T20:03:56.815Z,2.00
2023-05-05T20:06:23.634Z,1.90
2023-05-05T20:08:50.533Z,2.00
2023-05-05T20:11:17.635Z,2.03
2023-05-05T20:13:44.706Z,1.85
2023-05-05T20:16:11.934Z,1.83
2023-05-05T20:18:38.804Z,1.73
2023-05-05T20:21:05.342Z,2.00
2023-05-05T20:23:31.878Z,1.98
2023-05-05T20:25:58.345Z,1.85
2023-05-05T20:28:24.963Z,1.80
2023-05-05T20:30:51.651Z,1.75
2023-05-05T20:33:18.281Z,2.05
2023-05-05T20:35:44.818Z,2.17
2023-05-05T20:38:11.510Z,2.25
2023-05-05T20:40:38.053Z,2.30
2023-05-05T20:43:04.709Z,2.28
2023-05-05T20:45:33.922Z,2.00
2023-05-05T20:48:01.417Z,2.25
2023-05-05T20:50:28.000Z,2.70
2023-05-05T20:52:54.547Z,2.20
2023-05-05T20:55:21.269Z,2.22
2023-05-05T20:57:47.835Z,2.72
2023-05-05T21:00:14.558Z,2.25
2023-05-05T21:02:41.662Z,2.42
2023-05-05T21:05:08.709Z,2.42
2023-05-05T21:07:35.392Z,2.53
2023-05-05T21:10:03.674Z,2.47
2023-05-05T21:12:30.694Z,2.42
2023-05-05T21:14:58.911Z,2.05
2023-05-05T21:17:26.796Z,2.30
2023-05-05T21:19:54.279Z,2.53
2023-05-05T21:22:21.473Z,2.25
2023-05-05T21:24:48.240Z,2.40
2023-05-05T21:27:15.201Z,2.63
2023-05-05T21:29:43.516Z,2.53
2023-05-05T21:32:11.746Z,2.28
2023-05-05T21:34:39.446Z,2.65
2023-05-05T21:37:06.488Z,2.78
2023-05-05T21:39:33.281Z,3.08
2023-05-05T21:42:00.930Z,3.25
2023-05-05T21:44:28.281Z,3.17
2023-05-05T21:46:55.620Z,3.10
2023-05-05T21:49:22.337Z,3.75
2023-05-05T21:51:49.053Z,3.40
2023-05-05T21:54:16.153Z,3.55
2023-05-05T21:56:42.692Z,3.42
2023-05-05T21:59:11.373Z,2.97
2023-05-05T22:01:37.907Z,2.92
2023-05-05T22:04:04.563Z,2.95
2023-05-05T22:06:32.444Z,3.20
2023-05-05T22:08:58.948Z,3.40
2023-05-05T22:11:25.592Z,3.45
2023-05-05T22:13:52.376Z,3.10
2023-05-05T22:16:19.087Z,2.92
2023-05-05T22:18:46.104Z,3.13
2023-05-05T22:21:12.715Z,3.00
2023-05-05T22:23:41.405Z,3.25
2023-05-05T22:26:09.138Z,4.47
2023-05-05T22:28:36.195Z,3.47
2023-05-05T22:31:02.860Z,3.22
2023-05-05T22:33:29.446Z,3.05
2023-05-05T22:35:56.404Z,3.28
2023-05-05T22:38:22.969Z,3.25
2023-05-05T22:40:49.626Z,3.50
2023-05-05T22:43:16.272Z,3.50
2023-05-05T22:45:43.684Z,3.58
2023-05-05T22:48:10.346Z,3.53
2023-05-05T22:50:37.711Z,2.97
2023-05-05T22:53:04.266Z,3.13
2023-05-05T22:55:30.876Z,3.75
2023-05-05T22:57:57.417Z,2.97
2023-05-05T23:00:24.378Z,3.35
2023-05-05T23:02:50.998Z,3.72
2023-05-05T23:05:17.535Z,3.72
2023-05-05T23:07:44.020Z,3.63
2023-05-05T23:10:10.816Z,2.92
2023-05-05T23:12:37.369Z,3.35
2023-05-05T23:15:05.082Z,3.67
2023-05-05T23:17:31.648Z,3.67
2023-05-05T23:19:58.214Z,3.38
2023-05-05T23:22:24.744Z,3.58
2023-05-05T23:24:51.377Z,3.83
2023-05-05T23:27:17.872Z,3.45
2023-05-05T23:29:44.342Z,3.58
2023-05-05T23:32:11.014Z,3.40
2023-05-05T23:34:37.481Z,3.20
2023-05-05T23:37:06.045Z,3.35
2023-05-05T23:39:35.911Z,3.30
2023-05-05T23:42:02.407Z,3.72
2023-05-05T23:44:28.899Z,3.58
2023-05-05T23:46:55.441Z,3.83
2023-05-05T23:49:22.181Z,3.42
2023-05-05T23:51:48.658Z,3.83
2023-05-05T23:54:15.179Z,3.70
2023-05-05T23:56:42.646Z,3.63
2023-05-05T23:59:09.312Z,3.50
